FFT2697 KCLE-KPHX
Flight info
| Callsign | FFT2697 |
|---|---|
| Flight time | N/A |
| Altitude | 36000 |
| Route | ZAAPA6 SNNOH VHP J24 STL Q176 KENTO FTI J244 ZUN EAGUL6 |
| Aircraft | A20N/M-SDE2E3FGHIRWXY/LB1 |
Departure
| Time | 2026-05-05 21:33 |
|---|---|
| Airport | Cleveland Hopkins International Airport (KCLE) |
Arrival
| Time | N/A |
|---|---|
| Airport | Phoenix Sky Harbor International Airport (KPHX) |
| Time | Latitude | Longitude | Altitude | Speed | Heading |
|---|---|---|---|---|---|
| 2026-05-05 21:02 | 41.41341 | -81.83755 | 794 ft | 0 kts | 291° |
| 2026-05-05 21:22 | 41.41336 | -81.83737 | 794 ft | 2 kts | 291° |
| 2026-05-05 21:22 | 41.41331 | -81.83719 | 794 ft | 2 kts | 296° |
| 2026-05-05 21:23 | 41.41320 | -81.83704 | 795 ft | 2 kts | 335° |
| 2026-05-05 21:23 | 41.41305 | -81.83700 | 795 ft | 2 kts | 6° |
| 2026-05-05 21:23 | 41.41292 | -81.83706 | 795 ft | 0 kts | 34° |
| 2026-05-05 21:23 | 41.41291 | -81.83707 | 795 ft | 1 kts | 36° |
| 2026-05-05 21:24 | 41.41317 | -81.83680 | 795 ft | 4 kts | 39° |
| 2026-05-05 21:24 | 41.41328 | -81.83668 | 795 ft | 0 kts | 39° |
| 2026-05-05 21:24 | 41.41328 | -81.83667 | 795 ft | 0 kts | 39° |
| 2026-05-05 21:24 | 41.41329 | -81.83667 | 795 ft | 0 kts | 39° |
| 2026-05-05 21:27 | 41.41331 | -81.83665 | 795 ft | 0 kts | 38° |
| 2026-05-05 21:28 | 41.41339 | -81.83657 | 795 ft | 1 kts | 33° |
| 2026-05-05 21:28 | 41.41357 | -81.83646 | 796 ft | 3 kts | 18° |
| 2026-05-05 21:28 | 41.41388 | -81.83639 | 796 ft | 5 kts | 3° |
| 2026-05-05 21:28 | 41.41431 | -81.83644 | 796 ft | 7 kts | 342° |
| 2026-05-05 21:29 | 41.41477 | -81.83680 | 796 ft | 8 kts | 321° |
| 2026-05-05 21:29 | 41.41512 | -81.83746 | 796 ft | 9 kts | 291° |
| 2026-05-05 21:29 | 41.41523 | -81.83838 | 795 ft | 10 kts | 272° |
| 2026-05-05 21:29 | 41.41492 | -81.83933 | 794 ft | 12 kts | 227° |
| 2026-05-05 21:30 | 41.41434 | -81.84006 | 794 ft | 11 kts | 216° |
| 2026-05-05 21:30 | 41.41374 | -81.84078 | 794 ft | 8 kts | 230° |
| 2026-05-05 21:30 | 41.41359 | -81.84136 | 793 ft | 5 kts | 292° |
| 2026-05-05 21:30 | 41.41396 | -81.84164 | 793 ft | 3 kts | 353° |
| 2026-05-05 21:31 | 41.41420 | -81.84153 | 793 ft | 2 kts | 36° |
| 2026-05-05 21:31 | 41.41436 | -81.84141 | 793 ft | 3 kts | 19° |
| 2026-05-05 21:31 | 41.41462 | -81.84144 | 793 ft | 4 kts | 332° |
| 2026-05-05 21:31 | 41.41490 | -81.84174 | 793 ft | 5 kts | 320° |
| 2026-05-05 21:32 | 41.41516 | -81.84218 | 793 ft | 6 kts | 272° |
| 2026-05-05 21:32 | 41.41485 | -81.84281 | 792 ft | 13 kts | 230° |
| 2026-05-05 21:32 | 41.41275 | -81.84614 | 791 ft | 82 kts | 230° |
| 2026-05-05 21:32 | 41.40761 | -81.85422 | 786 ft | 142 kts | 230° |
| 2026-05-05 21:33 | 41.40044 | -81.86549 | 1009 ft | 168 kts | 233° |
| 2026-05-05 21:33 | 41.39279 | -81.87731 | 1578 ft | 172 kts | 230° |
| 2026-05-05 21:33 | 41.38483 | -81.88906 | 2238 ft | 174 kts | 238° |
| 2026-05-05 21:33 | 41.38003 | -81.90330 | 2927 ft | 166 kts | 253° |
| 2026-05-05 21:34 | 41.37598 | -81.91834 | 3383 ft | 177 kts | 250° |
| 2026-05-05 21:34 | 41.37083 | -81.93552 | 3774 ft | 194 kts | 248° |
| 2026-05-05 21:34 | 41.36537 | -81.95316 | 4060 ft | 216 kts | 248° |
| 2026-05-05 21:34 | 41.35896 | -81.97343 | 4599 ft | 230 kts | 246° |
| 2026-05-05 21:35 | 41.35193 | -81.99551 | 5134 ft | 246 kts | 247° |
| 2026-05-05 21:35 | 41.34453 | -82.01865 | 6021 ft | 247 kts | 246° |
| 2026-05-05 21:35 | 41.33709 | -82.04198 | 7006 ft | 245 kts | 245° |
| 2026-05-05 21:35 | 41.32931 | -82.06625 | 7969 ft | 245 kts | 245° |
| 2026-05-05 21:36 | 41.32165 | -82.09006 | 8865 ft | 246 kts | 244° |
| 2026-05-05 21:36 | 41.31389 | -82.11423 | 9676 ft | 249 kts | 244° |
| 2026-05-05 21:36 | 41.30624 | -82.13808 | 10515 ft | 250 kts | 243° |
| 2026-05-05 21:36 | 41.29822 | -82.16270 | 10932 ft | 266 kts | 245° |
| 2026-05-05 21:37 | 41.28962 | -82.18941 | 11299 ft | 283 kts | 245° |
| 2026-05-05 21:37 | 41.28040 | -82.21738 | 11665 ft | 299 kts | 244° |
| 2026-05-05 21:37 | 41.26921 | -82.24635 | 12002 ft | 314 kts | 241° |
| 2026-05-05 21:37 | 41.25695 | -82.27663 | 12359 ft | 330 kts | 239° |
| 2026-05-05 21:38 | 41.24423 | -82.30808 | 12741 ft | 344 kts | 241° |
| 2026-05-05 21:38 | 41.23098 | -82.34061 | 13321 ft | 349 kts | 241° |
| 2026-05-05 21:38 | 41.21741 | -82.37372 | 13973 ft | 352 kts | 241° |
| 2026-05-05 21:38 | 41.20375 | -82.40726 | 14631 ft | 355 kts | 243° |
| 2026-05-05 21:39 | 41.19113 | -82.44191 | 15239 ft | 359 kts | 245° |
| 2026-05-05 21:39 | 41.18018 | -82.47756 | 15803 ft | 364 kts | 249° |
| 2026-05-05 21:39 | 41.17038 | -82.51461 | 16350 ft | 368 kts | 250° |
| 2026-05-05 21:39 | 41.16074 | -82.55154 | 16923 ft | 371 kts | 250° |
| 2026-05-05 21:40 | 41.15110 | -82.58849 | 17438 ft | 374 kts | 250° |
| 2026-05-05 21:40 | 41.14132 | -82.62580 | 18014 ft | 377 kts | 250° |
| 2026-05-05 21:40 | 41.13166 | -82.66260 | 18463 ft | 381 kts | 250° |
| 2026-05-05 21:40 | 41.12159 | -82.70090 | 18960 ft | 385 kts | 249° |
| 2026-05-05 21:41 | 41.11197 | -82.73775 | 19483 ft | 386 kts | 251° |
| 2026-05-05 21:41 | 41.10350 | -82.77510 | 19941 ft | 390 kts | 253° |
| 2026-05-05 21:41 | 41.09600 | -82.81566 | 20465 ft | 392 kts | 255° |
| 2026-05-05 21:41 | 41.08891 | -82.85585 | 20918 ft | 395 kts | 255° |
| 2026-05-05 21:42 | 41.08166 | -82.89703 | 21404 ft | 396 kts | 256° |
| 2026-05-05 21:42 | 41.07452 | -82.93764 | 21858 ft | 398 kts | 256° |
| 2026-05-05 21:42 | 41.06806 | -82.97431 | 22218 ft | 402 kts | 256° |
| 2026-05-05 21:42 | 41.06162 | -83.01065 | 22610 ft | 403 kts | 256° |
| 2026-05-05 21:43 | 41.05458 | -83.05052 | 23036 ft | 404 kts | 256° |
| 2026-05-05 21:43 | 41.04750 | -83.09051 | 23398 ft | 407 kts | 255° |
| 2026-05-05 21:43 | 41.04048 | -83.12992 | 23787 ft | 409 kts | 256° |
| 2026-05-05 21:43 | 41.03373 | -83.16773 | 24174 ft | 409 kts | 255° |
| 2026-05-05 21:44 | 41.02650 | -83.20804 | 24529 ft | 411 kts | 256° |
| 2026-05-05 21:44 | 41.01911 | -83.24942 | 24856 ft | 413 kts | 256° |
| 2026-05-05 21:44 | 41.01143 | -83.29218 | 25183 ft | 415 kts | 257° |
| 2026-05-05 21:44 | 41.00359 | -83.33581 | 25532 ft | 416 kts | 256° |
| 2026-05-05 21:45 | 40.99572 | -83.37927 | 25917 ft | 415 kts | 256° |
| 2026-05-05 21:45 | 40.98821 | -83.42109 | 26367 ft | 413 kts | 257° |
| 2026-05-05 21:45 | 40.98043 | -83.46417 | 26806 ft | 411 kts | 257° |
| 2026-05-05 21:45 | 40.97269 | -83.50669 | 27213 ft | 409 kts | 257° |
| 2026-05-05 21:46 | 40.96507 | -83.54846 | 27626 ft | 407 kts | 257° |
| 2026-05-05 21:46 | 40.95737 | -83.59087 | 28047 ft | 405 kts | 257° |
| 2026-05-05 21:46 | 40.94959 | -83.63341 | 28474 ft | 403 kts | 257° |
| 2026-05-05 21:46 | 40.94261 | -83.67188 | 28834 ft | 401 kts | 257° |
| 2026-05-05 21:47 | 40.93568 | -83.70950 | 29236 ft | 399 kts | 257° |
| 2026-05-05 21:47 | 40.92905 | -83.74553 | 29587 ft | 398 kts | 257° |
| 2026-05-05 21:47 | 40.92246 | -83.78127 | 29942 ft | 396 kts | 257° |
| 2026-05-05 21:47 | 40.91571 | -83.81691 | 30262 ft | 395 kts | 256° |
| 2026-05-05 21:48 | 40.90693 | -83.85566 | 30616 ft | 394 kts | 254° |
| 2026-05-05 21:48 | 40.89656 | -83.89379 | 31002 ft | 393 kts | 251° |